• Join FlightAware (Why Join?)
  • Login
  • US Flag 
Trick or treat! (Boo!!) 
03:01AM EDT


 

Airport Tracker/Info


-or-


 

Live Flight TrackerFlight Track Log ✈ LXJ342 ✈ 25-Aug-2013 ✈ KHOU - KDAL

Flight Track Log - Related Links

Times and Time Zones

All times are in EDT time to prevent confusion due to time zone crossing. See the LXJ342 flight status page for this flight to view local times or setup timezone preferences in your user account.

Time Position Orientation Groundspeed Altitude Reporting Facility
EDT Latitude Longitude Course Direction KTS MPH feet Rate Location/Type
08:15PM 29.6728 -95.2389 34° Northeast 238 274 4,200  Level Houston Center
08:17PM 29.7553 -95.2739 340° North 276 318 8,400 3,420 Climbing Houston Center
08:18PM 29.8375 -95.3081 340° North 303 349 11,800 3,360 Climbing Houston Center
08:19PM 29.9322 -95.3389 344° North 346 398 15,400 2,820 Climbing Houston Center
08:20PM 30.0367 -95.3617 349° North 382 440 17,700 2,340 Climbing Houston Center
08:21PM 30.1444 -95.3869 349° North 396 456 20,200 2,280 Climbing Houston Center
08:22PM 30.2556 -95.4114 349° North 404 465 22,500 2,340 Climbing Houston Center
08:23PM 30.3664 -95.4375 349° North 405 466 25,100 2,220 Climbing Houston Center
08:24PM 30.5019 -95.4664 350° North 413 475 27,100 1,380 Climbing Houston Center
08:25PM 30.6208 -95.4947 348° North 434 499 28,000 420 Climbing Houston Center
08:26PM 30.7317 -95.5203 349° North 444 511 28,000  Level Houston Center
08:27PM 30.8792 -95.5531 349° North 449 517 28,000  Level Houston Center
08:28PM 31.0061 -95.5817 349° North 458 527 28,000  Level Houston Center
08:29PM 31.1297 -95.6103 349° North 451 519 28,000 -300 Level Houston Center
08:30PM 31.2542 -95.6381 349° North 451 519 27,500 -1,260 Descending Houston Center
08:31PM 31.3775 -95.6786 344° North 459 528 25,500 -1,560 Descending Houston Center
08:32PM 31.4856 -95.7467 332° Northwest 437 503 24,400 -780 Descending Houston Center
08:33PM 31.5903 -95.8161 331° Northwest 433 498 24,000 -960 Descending Houston Center
08:34PM 31.6967 -95.8869 330° Northwest 436 502 22,500 -2,040 Descending Houston Center
08:35PM 31.7997 -95.9547 331° Northwest 423 487 19,900 -2,460 Descending Houston Center
08:36PM 31.8964 -96.0194 330° Northwest 402 463 17,500 -2,640 Descending Houston Center
08:37PM 32.0083 -96.0961 330° Northwest 390 449 14,600 -2,640 Descending Houston Center
08:38PM 32.1000 -96.1564 331° Northwest 380 437 12,200 -2,220 Descending Houston Center
08:39PM 32.1892 -96.2172 330° Northwest 372 428 10,100 -1,200 Descending Houston Center
08:40PM 32.2667 -96.2667 332° Northwest 365 420 10,000 -180 Descending Dallas / Fort Worth TRACON
08:41PM 32.3333 -96.3000 337° Northwest 328 377 9,900 -540 Descending Dallas / Fort Worth TRACON
08:41PM 32.3842 -96.3383 328° Northwest 340 391 9,300 -720 Descending Fort Worth Center
08:42PM 32.4597 -96.3817 334° Northwest 312 359 8,800 -840 Descending Fort Worth Center
08:43PM 32.5353 -96.4278 333° Northwest 306 352 7,700 -1,020 Descending Fort Worth Center
08:44PM 32.6086 -96.4736 332° Northwest 306 352 6,800 -1,020 Descending Fort Worth Center
08:45PM 32.6800 -96.5200 331° Northwest 300 345 5,700 -900 Descending Fort Worth Center
08:46PM 32.7408 -96.5786 321° Northwest 290 334 5,000 -360 Descending Fort Worth Center
08:47PM 32.7933 -96.6325 319° Northwest 285 328 5,000 -480 Level Fort Worth Center
08:48PM 32.8522 -96.6939 319° Northwest 263 303 4,100 -1,020 Descending Fort Worth Center
08:49PM 32.9006 -96.7381 323° Northwest 258 297 3,000 -600 Descending Fort Worth Center
08:50PM 32.9592 -96.7772 331° Northwest 233 268 3,000  Level Fort Worth Center
08:51PM 32.9803 -96.8289 296° West 191 220 3,000 -180 Level Fort Worth Center
08:52PM 32.9514 -96.8886 240° Southwest 180 207 2,700 -600 Descending Fort Worth Center
08:53PM 32.9075 -96.9136 206° Southwest 163 188 1,800 -840 Descending Fort Worth Center
08:54PM 32.8803 -96.8817 135° Southeast 117 135 1,100 -720 Descending Fort Worth Center